PROFILE

 METAR AND TAF INFORMATION
ADDS - METARS form results

(0545 UTC 22 September 2019)
http://aviationweather.gov/metar/data/
 
DTMB 220530Z 11015KT 8000 TS SCT020 FEW023CB BKN030 22/22 Q1018 NOSIG
DTMB 220500Z 09014KT 6000 TS -RA SCT020 FEW023CB BKN030 21/21 Q1019 NOSIG
TAF DTMB 212300Z 2200/2224 11014KT 8000 SCT023 BECMG 2200/2202 15004KT PROB30 TEMPO 2200/2209 VRB17G27KT -TSRA FEW030CB BECMG 2207/2209 13015KT 

 AIRPORT MAP

 RUNWAY INFORMATION
Runway 07 Runway length 9678 ft Runway width 148 ft
Runway elevation 8 ft Runway displaced threshold 0 ft Runway heading 74
Runway 25 Runway length 9678 ft Runway width 148 ft
Runway elevation 8 ft Runway displaced threshold 0 ft Runway heading 254

 AIRPORT FREQUENCIES
Type APP Name BOURGUIBA Frequency 119.3 MHZ
Type ATIS Name MONASTIR A Frequency 113.1 MHZ
Type TWR Name BOURGUIBA Frequency 118.3 MHZ

 AIRPORT NEAR NAVIGATION AIDS
Type VOR-DME Name Monastir Frequency 113100 KHZ